Owatonna Degner Regional Airport

Airport
ICAO code: 
KOWA
IATA Code: 
OWA
Summary
ICAO Region: 
NAM
Territory: 
Location: 
Owatonna, Minnesota,
Serving: 
Owatonna
Elevation: 
1145 ft
Coordinates: 
Aerial View: 
44° 7' 22.627" N, 93° 15' 31.774" W
Metar
Observation
KOWA 040733Z AUTO 30005KT 10SM BKN110 M02/M05 A3026 RMK AO2
Station
Owatonna, Owatonna Degner Regional Airport
Date/Time
2021-12-04 07:33:00
Wind direction
300°
Wind speed
05 kts
Lowest cloud amount
broken clouds
Temperature
-2°C
Dew point
-5°C
Humidity
79%
Weather condition
n/a

Description

Regional airport serving Owatonna, Minnesota.

Climatology

Humid Continental climate (Köppen climate classification Dfb) - Variable weather patterns and a large seasonal temperature variance. Summers are often warm and humid with frequent thunderstorms and winters can be very cold with frequent snowfall and persistent snow cover.

Runways

Designator Length Width Surface Rops
12/30 1676 30 CON No/No
Airport map: 
Aerial View: 

Accidents and Serious Incidents at or in the vicinity of KOWA

SKYbrary Partners:

Safety knowledge contributed by: